sensor_id;sensor_type;location;lat;lon;timestamp;pressure;altitude;pressure_sealevel;temperature;humidity
46211;BME280;52144;48.040;-1.594;2023-09-19T00:00:18;101031.06;;;19.77;80.75
46211;BME280;52144;48.040;-1.594;2023-09-19T00:02:52;101043.13;;;19.96;79.98
46211;BME280;52144;48.040;-1.594;2023-09-19T00:05:20;101038.56;;;19.96;79.03
46211;BME280;52144;48.040;-1.594;2023-09-19T00:07:50;101038.69;;;19.72;79.89
46211;BME280;52144;48.040;-1.594;2023-09-19T00:10:21;101029.50;;;19.39;83.21
46211;BME280;52144;48.040;-1.594;2023-09-19T00:12:52;101023.28;;;19.50;83.75
46211;BME280;52144;48.040;-1.594;2023-09-19T00:15:22;101022.19;;;19.53;81.01
46211;BME280;52144;48.040;-1.594;2023-09-19T00:17:49;101025.72;;;19.53;82.96
46211;BME280;52144;48.040;-1.594;2023-09-19T00:20:19;101025.31;;;19.71;82.67
46211;BME280;52144;48.040;-1.594;2023-09-19T00:22:49;101022.34;;;19.74;80.82
46211;BME280;52144;48.040;-1.594;2023-09-19T00:25:19;101034.09;;;19.50;82.36
46211;BME280;52144;48.040;-1.594;2023-09-19T00:27:48;101031.13;;;19.53;83.89
46211;BME280;52144;48.040;-1.594;2023-09-19T00:30:19;101033.69;;;19.43;83.92
46211;BME280;52144;48.040;-1.594;2023-09-19T00:32:49;101038.47;;;19.29;85.27
46211;BME280;52144;48.040;-1.594;2023-09-19T00:35:21;101030.94;;;19.21;86.21
46211;BME280;52144;48.040;-1.594;2023-09-19T00:37:50;101027.81;;;19.03;87.41
46211;BME280;52144;48.040;-1.594;2023-09-19T00:40:19;101034.44;;;19.45;84.75
46211;BME280;52144;48.040;-1.594;2023-09-19T00:42:48;101026.16;;;19.24;85.92
46211;BME280;52144;48.040;-1.594;2023-09-19T00:45:18;101027.97;;;19.13;86.29
46211;BME280;52144;48.040;-1.594;2023-09-19T00:47:49;101036.06;;;19.48;85.04
46211;BME280;52144;48.040;-1.594;2023-09-19T00:50:18;101036.19;;;19.69;84.25
46211;BME280;52144;48.040;-1.594;2023-09-19T00:52:48;101035.31;;;19.46;84.68
46211;BME280;52144;48.040;-1.594;2023-09-19T00:55:17;101034.41;;;19.81;83.17
46211;BME280;52144;48.040;-1.594;2023-09-19T00:57:46;101035.13;;;19.94;81.81
46211;BME280;52144;48.040;-1.594;2023-09-19T01:00:16;101042.56;;;19.68;83.12
46211;BME280;52144;48.040;-1.594;2023-09-19T01:02:48;101030.88;;;19.45;84.51
46211;BME280;52144;48.040;-1.594;2023-09-19T01:05:16;101034.09;;;19.61;81.79
46211;BME280;52144;48.040;-1.594;2023-09-19T01:07:45;101030.63;;;19.37;84.20
46211;BME280;52144;48.040;-1.594;2023-09-19T01:10:16;101033.06;;;19.29;84.71
46211;BME280;52144;48.040;-1.594;2023-09-19T01:12:52;101042.09;;;19.63;81.74
46211;BME280;52144;48.040;-1.594;2023-09-19T01:15:31;101035.84;;;19.62;82.23
46211;BME280;52144;48.040;-1.594;2023-09-19T01:18:12;101034.63;;;19.78;80.29
46211;BME280;52144;48.040;-1.594;2023-09-19T01:20:53;101039.97;;;19.55;82.00
46211;BME280;52144;48.040;-1.594;2023-09-19T01:23:31;101048.94;;;19.44;83.62
46211;BME280;52144;48.040;-1.594;2023-09-19T01:26:11;101038.91;;;19.69;81.41
46211;BME280;52144;48.040;-1.594;2023-09-19T01:28:53;101048.34;;;19.63;81.90
46211;BME280;52144;48.040;-1.594;2023-09-19T01:31:25;101047.91;;;19.81;80.90
46211;BME280;52144;48.040;-1.594;2023-09-19T01:33:58;101050.75;;;19.33;82.83
46211;BME280;52144;48.040;-1.594;2023-09-19T01:36:28;101052.25;;;19.01;85.96
46211;BME280;52144;48.040;-1.594;2023-09-19T01:38:57;101046.88;;;19.48;82.40
46211;BME280;52144;48.040;-1.594;2023-09-19T01:41:33;101047.75;;;19.13;84.93
46211;BME280;52144;48.040;-1.594;2023-09-19T01:44:09;101044.69;;;19.18;83.98
46211;BME280;52144;48.040;-1.594;2023-09-19T01:46:44;101047.06;;;18.98;84.38
46211;BME280;52144;48.040;-1.594;2023-09-19T01:49:22;101044.44;;;18.86;84.55
46211;BME280;52144;48.040;-1.594;2023-09-19T01:52:02;101048.16;;;19.31;83.00
46211;BME280;52144;48.040;-1.594;2023-09-19T01:54:36;101046.72;;;19.50;80.83
46211;BME280;52144;48.040;-1.594;2023-09-19T01:57:15;101046.34;;;19.32;82.00
46211;BME280;52144;48.040;-1.594;2023-09-19T01:59:50;101045.38;;;19.55;80.56
46211;BME280;52144;48.040;-1.594;2023-09-19T02:02:21;101035.00;;;19.73;79.95
46211;BME280;52144;48.040;-1.594;2023-09-19T02:04:50;101040.63;;;19.70;80.13
46211;BME280;52144;48.040;-1.594;2023-09-19T02:07:19;101047.22;;;19.66;80.15
46211;BME280;52144;48.040;-1.594;2023-09-19T02:09:47;101039.50;;;19.61;80.53
46211;BME280;52144;48.040;-1.594;2023-09-19T02:12:15;101041.69;;;19.45;81.54
46211;BME280;52144;48.040;-1.594;2023-09-19T02:14:43;101039.56;;;19.73;79.53
46211;BME280;52144;48.040;-1.594;2023-09-19T02:17:11;101036.31;;;19.56;80.35
46211;BME280;52144;48.040;-1.594;2023-09-19T02:19:40;101036.00;;;19.72;79.18
46211;BME280;52144;48.040;-1.594;2023-09-19T02:22:08;101036.31;;;19.56;80.35
46211;BME280;52144;48.040;-1.594;2023-09-19T02:24:37;101036.00;;;19.72;78.88
46211;BME280;52144;48.040;-1.594;2023-09-19T02:27:05;101035.34;;;19.69;79.64
46211;BME280;52144;48.040;-1.594;2023-09-19T02:29:34;101030.47;;;19.27;81.05
46211;BME280;52144;48.040;-1.594;2023-09-19T02:32:02;101043.69;;;19.54;80.18
46211;BME280;52144;48.040;-1.594;2023-09-19T02:34:31;101036.00;;;19.72;79.01
46211;BME280;52144;48.040;-1.594;2023-09-19T02:37:00;101037.47;;;19.76;78.49
46211;BME280;52144;48.040;-1.594;2023-09-19T02:39:28;101038.91;;;19.69;78.82
46211;BME280;52144;48.040;-1.594;2023-09-19T02:41:56;101038.69;;;19.72;78.75
46211;BME280;52144;48.040;-1.594;2023-09-19T02:44:24;101036.19;;;19.69;77.43
46211;BME280;52144;48.040;-1.594;2023-09-19T02:46:52;101039.72;;;19.47;77.52
46211;BME280;52144;48.040;-1.594;2023-09-19T02:49:20;101037.22;;;19.21;79.96
46211;BME280;52144;48.040;-1.594;2023-09-19T02:51:47;101039.19;;;19.31;80.97
46211;BME280;52144;48.040;-1.594;2023-09-19T02:54:17;101030.13;;;19.43;78.87
46211;BME280;52144;48.040;-1.594;2023-09-19T02:56:45;101024.25;;;19.38;78.59
46211;BME280;52144;48.040;-1.594;2023-09-19T02:59:13;101023.19;;;19.16;79.79
46211;BME280;52144;48.040;-1.594;2023-09-19T03:01:43;101018.78;;;19.15;80.63
46211;BME280;52144;48.040;-1.594;2023-09-19T03:04:11;101022.72;;;19.22;80.86
46211;BME280;52144;48.040;-1.594;2023-09-19T03:06:39;101026.56;;;18.96;79.75
46211;BME280;52144;48.040;-1.594;2023-09-19T03:09:07;101021.25;;;18.83;80.31
46211;BME280;52144;48.040;-1.594;2023-09-19T03:11:39;101027.50;;;18.83;81.73
46211;BME280;52144;48.040;-1.594;2023-09-19T03:14:09;101027.91;;;18.90;81.61
46211;BME280;52144;48.040;-1.594;2023-09-19T03:16:37;101035.28;;;18.75;80.57
46211;BME280;52144;48.040;-1.594;2023-09-19T03:19:05;101023.41;;;18.54;82.56
46211;BME280;52144;48.040;-1.594;2023-09-19T03:21:33;101023.75;;;18.73;83.66
46211;BME280;52144;48.040;-1.594;2023-09-19T03:24:03;101023.97;;;18.70;81.78
46211;BME280;52144;48.040;-1.594;2023-09-19T03:26:31;101018.09;;;18.76;83.62
46211;BME280;52144;48.040;-1.594;2023-09-19T03:29:03;101023.13;;;18.70;84.04
46211;BME280;52144;48.040;-1.594;2023-09-19T03:31:32;101025.84;;;18.94;82.87
46211;BME280;52144;48.040;-1.594;2023-09-19T03:34:03;101027.59;;;19.06;82.82
46211;BME280;52144;48.040;-1.594;2023-09-19T03:36:31;101022.88;;;18.97;80.59
46211;BME280;52144;48.040;-1.594;2023-09-19T03:39:02;101025.75;;;19.07;82.48
46211;BME280;52144;48.040;-1.594;2023-09-19T03:41:31;101025.44;;;19.22;81.02
46211;BME280;52144;48.040;-1.594;2023-09-19T03:44:01;101034.16;;;19.26;81.59
46211;BME280;52144;48.040;-1.594;2023-09-19T03:46:29;101028.44;;;19.42;79.65
46211;BME280;52144;48.040;-1.594;2023-09-19T03:48:57;101038.75;;;19.48;79.70
46211;BME280;52144;48.040;-1.594;2023-09-19T03:51:24;101028.28;;;19.43;79.79
46211;BME280;52144;48.040;-1.594;2023-09-19T03:53:52;101024.63;;;19.56;78.62
46211;BME280;52144;48.040;-1.594;2023-09-19T03:56:20;101026.25;;;19.58;78.91
46211;BME280;52144;48.040;-1.594;2023-09-19T03:58:48;101026.47;;;19.55;79.38
46211;BME280;52144;48.040;-1.594;2023-09-19T04:01:18;101024.38;;;19.48;78.15
46211;BME280;52144;48.040;-1.594;2023-09-19T04:03:46;101012.56;;;19.26;80.37
46211;BME280;52144;48.040;-1.594;2023-09-19T04:06:15;101015.50;;;19.45;80.28
46211;BME280;52144;48.040;-1.594;2023-09-19T04:08:43;101017.63;;;19.53;79.57
46211;BME280;52144;48.040;-1.594;2023-09-19T04:11:12;101007.56;;;19.67;78.85
46211;BME280;52144;48.040;-1.594;2023-09-19T04:13:39;101006.34;;;19.82;77.39
46211;BME280;52144;48.040;-1.594;2023-09-19T04:16:08;101002.91;;;19.69;78.16
46211;BME280;52144;48.040;-1.594;2023-09-19T04:18:38;101001.16;;;19.68;78.69
46211;BME280;52144;48.040;-1.594;2023-09-19T04:21:06;100998.16;;;19.72;78.47
46211;BME280;52144;48.040;-1.594;2023-09-19T04:23:34;100999.47;;;19.78;77.95
46211;BME280;52144;48.040;-1.594;2023-09-19T04:26:01;100997.16;;;19.84;77.17
46211;BME280;52144;48.040;-1.594;2023-09-19T04:28:30;100999.22;;;19.58;78.46
46211;BME280;52144;48.040;-1.594;2023-09-19T04:30:59;100994.06;;;19.67;78.87
46211;BME280;52144;48.040;-1.594;2023-09-19T04:33:27;100998.34;;;19.69;77.94
46211;BME280;52144;48.040;-1.594;2023-09-19T04:35:56;100987.03;;;19.53;77.14
46211;BME280;52144;48.040;-1.594;2023-09-19T04:38:33;100994.03;;;19.44;79.32
46211;BME280;52144;48.040;-1.594;2023-09-19T04:41:01;100983.97;;;19.57;78.85
46211;BME280;52144;48.040;-1.594;2023-09-19T04:43:29;100980.53;;;19.67;78.05
46211;BME280;52144;48.040;-1.594;2023-09-19T04:45:57;100989.13;;;19.49;80.56
46211;BME280;52144;48.040;-1.594;2023-09-19T04:48:27;100991.34;;;19.44;75.88
46211;BME280;52144;48.040;-1.594;2023-09-19T04:50:57;100989.81;;;19.17;73.63
46211;BME280;52144;48.040;-1.594;2023-09-19T04:53:26;100990.63;;;19.07;75.55
46211;BME280;52144;48.040;-1.594;2023-09-19T04:55:54;100985.50;;;19.03;75.68
46211;BME280;52144;48.040;-1.594;2023-09-19T04:58:23;100996.41;;;19.02;77.93
46211;BME280;52144;48.040;-1.594;2023-09-19T05:00:50;101000.06;;;19.01;78.29
46211;BME280;52144;48.040;-1.594;2023-09-19T05:03:18;101007.09;;;19.15;77.94
46211;BME280;52144;48.040;-1.594;2023-09-19T05:05:46;101014.00;;;19.19;79.48
46211;BME280;52144;48.040;-1.594;2023-09-19T05:08:15;101005.03;;;19.18;80.14
46211;BME280;52144;48.040;-1.594;2023-09-19T05:10:43;101006.25;;;19.14;81.23
46211;BME280;52144;48.040;-1.594;2023-09-19T05:13:11;101005.63;;;19.11;81.53
46211;BME280;52144;48.040;-1.594;2023-09-19T05:15:40;101002.06;;;19.10;81.83
46211;BME280;52144;48.040;-1.594;2023-09-19T05:18:07;101004.69;;;18.88;82.15
46211;BME280;52144;48.040;-1.594;2023-09-19T05:20:35;101009.16;;;19.00;83.59
46211;BME280;52144;48.040;-1.594;2023-09-19T05:23:06;101007.09;;;19.03;82.43
46211;BME280;52144;48.040;-1.594;2023-09-19T05:25:40;101007.63;;;19.20;83.33
46211;BME280;52144;48.040;-1.594;2023-09-19T05:28:10;101001.38;;;19.19;82.62
46211;BME280;52144;48.040;-1.594;2023-09-19T05:30:41;100998.91;;;19.16;81.21
46211;BME280;52144;48.040;-1.594;2023-09-19T05:33:12;100991.28;;;19.10;81.39
46211;BME280;52144;48.040;-1.594;2023-09-19T05:35:40;101001.13;;;19.22;81.70
46211;BME280;52144;48.040;-1.594;2023-09-19T05:38:08;100999.41;;;19.21;80.84
46211;BME280;52144;48.040;-1.594;2023-09-19T05:40:39;101003.44;;;19.16;81.53
46211;BME280;52144;48.040;-1.594;2023-09-19T05:43:08;101003.19;;;19.19;80.74
46211;BME280;52144;48.040;-1.594;2023-09-19T05:45:36;101008.97;;;19.14;82.36
46211;BME280;52144;48.040;-1.594;2023-09-19T05:48:08;101005.75;;;19.09;82.32
46211;BME280;52144;48.040;-1.594;2023-09-19T05:50:38;101009.63;;;18.94;81.61
46211;BME280;52144;48.040;-1.594;2023-09-19T05:53:06;101014.78;;;18.97;83.16
46211;BME280;52144;48.040;-1.594;2023-09-19T05:55:34;101011.88;;;19.00;81.70
46211;BME280;52144;48.040;-1.594;2023-09-19T05:58:03;101008.03;;;18.91;83.38
46211;BME280;52144;48.040;-1.594;2023-09-19T06:00:31;100998.56;;;18.97;82.07
46211;BME280;52144;48.040;-1.594;2023-09-19T06:03:00;101010.13;;;18.99;82.80
46211;BME280;52144;48.040;-1.594;2023-09-19T06:05:28;101002.50;;;18.93;82.57
46211;BME280;52144;48.040;-1.594;2023-09-19T06:07:58;101010.59;;;18.93;82.82
46211;BME280;52144;48.040;-1.594;2023-09-19T06:10:27;101013.75;;;18.87;83.07
46211;BME280;52144;48.040;-1.594;2023-09-19T06:12:56;101018.19;;;18.88;82.34
46211;BME280;52144;48.040;-1.594;2023-09-19T06:15:26;101000.09;;;18.77;84.18
46211;BME280;52144;48.040;-1.594;2023-09-19T06:17:55;101007.03;;;18.68;81.89
46211;BME280;52144;48.040;-1.594;2023-09-19T06:20:24;101006.06;;;18.69;84.83
46211;BME280;52144;48.040;-1.594;2023-09-19T06:22:53;101004.28;;;18.57;84.00
46211;BME280;52144;48.040;-1.594;2023-09-19T06:25:21;101011.75;;;18.77;85.17
46211;BME280;52144;48.040;-1.594;2023-09-19T06:27:50;101009.47;;;18.84;83.79
46211;BME280;52144;48.040;-1.594;2023-09-19T06:30:21;101005.91;;;18.83;82.88
46211;BME280;52144;48.040;-1.594;2023-09-19T06:32:57;101002.63;;;18.91;84.74
46211;BME280;52144;48.040;-1.594;2023-09-19T06:35:26;101003.22;;;18.95;83.80
46211;BME280;52144;48.040;-1.594;2023-09-19T06:37:54;101004.13;;;18.95;83.80
46211;BME280;52144;48.040;-1.594;2023-09-19T06:40:26;101005.94;;;18.95;83.70
46211;BME280;52144;48.040;-1.594;2023-09-19T06:42:55;101012.13;;;19.08;83.84
46211;BME280;52144;48.040;-1.594;2023-09-19T06:45:23;101008.56;;;19.08;83.66
46211;BME280;52144;48.040;-1.594;2023-09-19T06:47:55;101017.63;;;18.95;84.13
46211;BME280;52144;48.040;-1.594;2023-09-19T06:50:25;101012.50;;;19.15;83.66
46211;BME280;52144;48.040;-1.594;2023-09-19T06:52:55;101023.72;;;19.33;82.70
46211;BME280;52144;48.040;-1.594;2023-09-19T06:55:25;101007.78;;;19.41;82.25
46211;BME280;52144;48.040;-1.594;2023-09-19T06:57:55;101019.69;;;19.50;82.24
46211;BME280;52144;48.040;-1.594;2023-09-19T07:00:23;101018.25;;;19.68;81.58
46211;BME280;52144;48.040;-1.594;2023-09-19T07:02:57;101007.50;;;19.91;80.15
46211;BME280;52144;48.040;-1.594;2023-09-19T07:05:27;101012.50;;;20.07;79.91
46211;BME280;52144;48.040;-1.594;2023-09-19T07:07:55;101009.00;;;20.27;78.32
46211;BME280;52144;48.040;-1.594;2023-09-19T07:10:26;100994.41;;;20.18;78.84
46211;BME280;52144;48.040;-1.594;2023-09-19T07:12:56;100989.31;;;20.36;78.10
46211;BME280;52144;48.040;-1.594;2023-09-19T07:15:25;100989.50;;;20.12;78.42
46211;BME280;52144;48.040;-1.594;2023-09-19T07:17:53;101000.66;;;20.30;77.91
46211;BME280;52144;48.040;-1.594;2023-09-19T07:20:24;101002.97;;;20.35;78.77
46211;BME280;52144;48.040;-1.594;2023-09-19T07:22:53;101003.09;;;20.33;78.17
46211;BME280;52144;48.040;-1.594;2023-09-19T07:25:22;101008.53;;;20.22;78.52
46211;BME280;52144;48.040;-1.594;2023-09-19T07:27:50;101005.94;;;20.32;79.47
46211;BME280;52144;48.040;-1.594;2023-09-19T07:30:18;101003.47;;;20.40;78.81
46211;BME280;52144;48.040;-1.594;2023-09-19T07:32:46;101002.69;;;20.49;78.90
46211;BME280;52144;48.040;-1.594;2023-09-19T07:35:14;100992.22;;;20.56;79.29
46211;BME280;52144;48.040;-1.594;2023-09-19T07:37:43;101004.03;;;20.66;77.90
46211;BME280;52144;48.040;-1.594;2023-09-19T07:40:17;100989.53;;;20.44;78.64
46211;BME280;52144;48.040;-1.594;2023-09-19T07:42:45;101007.00;;;20.52;79.00
46211;BME280;52144;48.040;-1.594;2023-09-19T07:45:14;101000.59;;;20.64;78.07
46211;BME280;52144;48.040;-1.594;2023-09-19T07:47:44;101005.22;;;20.73;77.74
46211;BME280;52144;48.040;-1.594;2023-09-19T07:50:12;101004.38;;;20.73;78.30
46211;BME280;52144;48.040;-1.594;2023-09-19T07:52:40;100999.81;;;20.73;78.99
46211;BME280;52144;48.040;-1.594;2023-09-19T07:55:09;100997.13;;;20.94;77.68
46211;BME280;52144;48.040;-1.594;2023-09-19T07:57:38;100991.66;;;21.06;77.79
46211;BME280;52144;48.040;-1.594;2023-09-19T08:00:08;100997.34;;;21.23;77.62
46211;BME280;52144;48.040;-1.594;2023-09-19T08:02:39;100989.84;;;21.37;77.98
46211;BME280;52144;48.040;-1.594;2023-09-19T08:05:08;100988.59;;;21.41;75.63
46211;BME280;52144;48.040;-1.594;2023-09-19T08:07:39;100993.50;;;21.47;75.77
46211;BME280;52144;48.040;-1.594;2023-09-19T08:10:09;100994.69;;;21.54;76.34
46211;BME280;52144;48.040;-1.594;2023-09-19T08:12:38;100988.00;;;21.58;76.63
46211;BME280;52144;48.040;-1.594;2023-09-19T08:15:13;100989.59;;;21.61;77.41
46211;BME280;52144;48.040;-1.594;2023-09-19T08:17:41;100988.91;;;21.69;77.03
46211;BME280;52144;48.040;-1.594;2023-09-19T08:20:10;100993.78;;;21.44;77.72
46211;BME280;52144;48.040;-1.594;2023-09-19T08:22:43;100986.38;;;21.46;77.60
46211;BME280;52144;48.040;-1.594;2023-09-19T08:25:15;100989.72;;;21.38;77.13
46211;BME280;52144;48.040;-1.594;2023-09-19T08:27:45;100987.81;;;21.08;80.11
46211;BME280;52144;48.040;-1.594;2023-09-19T08:30:15;100997.81;;;21.50;78.39
46211;BME280;52144;48.040;-1.594;2023-09-19T08:32:43;100992.16;;;21.62;77.49
46211;BME280;52144;48.040;-1.594;2023-09-19T08:35:10;100985.44;;;21.97;77.44
46211;BME280;52144;48.040;-1.594;2023-09-19T08:37:38;100986.81;;;21.30;79.13
46211;BME280;52144;48.040;-1.594;2023-09-19T08:40:07;100994.56;;;20.93;82.29
46211;BME280;52144;48.040;-1.594;2023-09-19T08:42:50;100987.00;;;21.59;78.46
46211;BME280;52144;48.040;-1.594;2023-09-19T08:45:20;100989.72;;;21.59;78.57
46211;BME280;52144;48.040;-1.594;2023-09-19T08:47:54;100988.00;;;20.74;84.53
46211;BME280;52144;48.040;-1.594;2023-09-19T08:50:26;100986.38;;;21.46;81.22
46211;BME280;52144;48.040;-1.594;2023-09-19T08:52:56;100986.84;;;21.82;78.67
46211;BME280;52144;48.040;-1.594;2023-09-19T08:55:28;100983.53;;;21.48;79.08
46211;BME280;52144;48.040;-1.594;2023-09-19T08:58:00;100985.59;;;21.65;79.04
46211;BME280;52144;48.040;-1.594;2023-09-19T09:00:30;100981.69;;;21.79;77.86
46211;BME280;52144;48.040;-1.594;2023-09-19T09:02:58;100972.94;;;22.16;77.42
46211;BME280;52144;48.040;-1.594;2023-09-19T09:05:27;100973.88;;;22.46;76.50
46211;BME280;52144;48.040;-1.594;2023-09-19T09:07:56;100965.50;;;22.18;76.82
46211;BME280;52144;48.040;-1.594;2023-09-19T09:10:26;100965.59;;;22.37;75.71
46211;BME280;52144;48.040;-1.594;2023-09-19T09:12:54;100966.16;;;22.80;75.11
46211;BME280;52144;48.040;-1.594;2023-09-19T09:15:24;100965.88;;;22.83;74.85
46211;BME280;52144;48.040;-1.594;2023-09-19T09:17:52;100967.59;;;22.74;75.25
46211;BME280;52144;48.040;-1.594;2023-09-19T09:20:20;100975.03;;;22.43;76.08
46211;BME280;52144;48.040;-1.594;2023-09-19T09:22:51;100967.19;;;23.08;73.73
46211;BME280;52144;48.040;-1.594;2023-09-19T09:25:22;100972.72;;;22.77;73.80
46211;BME280;52144;48.040;-1.594;2023-09-19T09:28:01;100976.00;;;23.20;72.83
46211;BME280;52144;48.040;-1.594;2023-09-19T09:30:34;100976.88;;;23.68;71.66
46211;BME280;52144;48.040;-1.594;2023-09-19T09:33:10;100987.47;;;22.94;72.50
46211;BME280;52144;48.040;-1.594;2023-09-19T09:35:47;100975.44;;;22.48;74.62
46211;BME280;52144;48.040;-1.594;2023-09-19T09:38:19;100975.75;;;22.45;74.77
46211;BME280;52144;48.040;-1.594;2023-09-19T09:40:48;100978.75;;;22.52;74.71
46211;BME280;52144;48.040;-1.594;2023-09-19T09:43:28;100977.88;;;23.19;72.41
46211;BME280;52144;48.040;-1.594;2023-09-19T09:46:08;100973.63;;;23.54;70.72
46211;BME280;52144;48.040;-1.594;2023-09-19T09:49:00;100977.38;;;23.43;70.86
46211;BME280;52144;48.040;-1.594;2023-09-19T09:51:46;100965.56;;;23.62;70.60
46211;BME280;52144;48.040;-1.594;2023-09-19T09:54:24;100974.78;;;23.89;66.62
46211;BME280;52144;48.040;-1.594;2023-09-19T09:56:55;100972.63;;;23.55;68.69
46211;BME280;52144;48.040;-1.594;2023-09-19T09:59:49;100978.00;;;23.28;70.04
46211;BME280;52144;48.040;-1.594;2023-09-19T10:02:25;100975.31;;;22.69;73.14
46211;BME280;52144;48.040;-1.594;2023-09-19T10:04:56;100981.53;;;23.38;70.96
46211;BME280;52144;48.040;-1.594;2023-09-19T10:07:40;100966.00;;;23.20;68.66
46211;BME280;52144;48.040;-1.594;2023-09-19T10:10:14;100968.22;;;23.44;68.37
46211;BME280;52144;48.040;-1.594;2023-09-19T10:12:48;100968.88;;;23.56;67.64
46211;BME280;52144;48.040;-1.594;2023-09-19T10:15:18;100961.84;;;22.97;69.49
46211;BME280;52144;48.040;-1.594;2023-09-19T10:17:49;100960.88;;;23.55;67.18
46211;BME280;52144;48.040;-1.594;2023-09-19T10:20:21;100955.97;;;23.78;66.12
46211;BME280;52144;48.040;-1.594;2023-09-19T10:23:00;100953.16;;;24.61;62.98
46211;BME280;52144;48.040;-1.594;2023-09-19T10:25:29;100946.72;;;25.06;61.87
46211;BME280;52144;48.040;-1.594;2023-09-19T10:28:00;100940.69;;;24.40;63.04
46211;BME280;52144;48.040;-1.594;2023-09-19T10:30:31;100937.94;;;24.76;61.32
46211;BME280;52144;48.040;-1.594;2023-09-19T10:33:04;100934.31;;;25.12;59.98
46211;BME280;52144;48.040;-1.594;2023-09-19T10:35:32;100934.34;;;24.22;61.26
46211;BME280;52144;48.040;-1.594;2023-09-19T10:38:01;100929.47;;;24.43;59.41
46211;BME280;52144;48.040;-1.594;2023-09-19T10:40:29;100933.00;;;24.54;59.36
46211;BME280;52144;48.040;-1.594;2023-09-19T10:43:02;100943.00;;;23.52;61.25
46211;BME280;52144;48.040;-1.594;2023-09-19T10:45:32;100932.94;;;23.62;61.79
46211;BME280;52144;48.040;-1.594;2023-09-19T10:48:02;100928.13;;;24.30;60.04
46211;BME280;52144;48.040;-1.594;2023-09-19T10:50:35;100927.22;;;23.93;60.42
46211;BME280;52144;48.040;-1.594;2023-09-19T10:53:05;100920.19;;;24.18;58.91
46211;BME280;52144;48.040;-1.594;2023-09-19T10:55:35;100922.44;;;24.23;59.27
46211;BME280;52144;48.040;-1.594;2023-09-19T10:58:05;100917.19;;;24.75;58.21
46211;BME280;52144;48.040;-1.594;2023-09-19T11:00:51;100929.38;;;25.15;57.82
46211;BME280;52144;48.040;-1.594;2023-09-19T11:03:22;100925.28;;;23.76;59.22
46211;BME280;52144;48.040;-1.594;2023-09-19T11:06:04;100926.63;;;24.17;58.23
46211;BME280;52144;48.040;-1.594;2023-09-19T11:09:01;100920.59;;;24.41;58.64
46211;BME280;52144;48.040;-1.594;2023-09-19T11:11:50;100925.16;;;24.51;59.59
46211;BME280;52144;48.040;-1.594;2023-09-19T11:14:30;100923.59;;;24.02;60.20
46211;BME280;52144;48.040;-1.594;2023-09-19T11:20:24;100917.88;;;24.77;57.95
46211;BME280;52144;48.040;-1.594;2023-09-19T11:23:18;100919.56;;;24.07;58.63
46211;BME280;52144;48.040;-1.594;2023-09-19T11:25:49;100919.69;;;24.51;58.45
46211;BME280;52144;48.040;-1.594;2023-09-19T11:28:34;100920.56;;;24.06;59.79
46211;BME280;52144;48.040;-1.594;2023-09-19T11:34:44;100917.38;;;25.00;56.25
46211;BME280;52144;48.040;-1.594;2023-09-19T11:40:28;100898.81;;;24.41;56.31
46211;BME280;52144;48.040;-1.594;2023-09-19T11:42:57;100892.09;;;24.18;57.01
46211;BME280;52144;48.040;-1.594;2023-09-19T11:48:32;100888.75;;;24.78;55.09
46211;BME280;52144;48.040;-1.594;2023-09-19T11:51:13;100881.75;;;24.75;55.93
46211;BME280;52144;48.040;-1.594;2023-09-19T11:53:49;100882.88;;;24.91;55.76
46211;BME280;52144;48.040;-1.594;2023-09-19T11:56:20;100890.66;;;24.59;56.13
46211;BME280;52144;48.040;-1.594;2023-09-19T11:58:50;100878.09;;;24.67;56.25
46211;BME280;52144;48.040;-1.594;2023-09-19T12:01:23;100890.88;;;24.66;56.05
46211;BME280;52144;48.040;-1.594;2023-09-19T12:03:53;100888.66;;;24.88;56.08
46211;BME280;52144;48.040;-1.594;2023-09-19T12:06:24;100891.09;;;24.99;55.37
46211;BME280;52144;48.040;-1.594;2023-09-19T12:08:52;100880.75;;;25.29;55.06
46211;BME280;52144;48.040;-1.594;2023-09-19T12:11:23;100889.13;;;25.70;53.74
46211;BME280;52144;48.040;-1.594;2023-09-19T12:13:53;100892.47;;;25.98;53.42
46211;BME280;52144;48.040;-1.594;2023-09-19T12:16:24;100891.22;;;25.15;53.33
46211;BME280;52144;48.040;-1.594;2023-09-19T12:18:52;100892.94;;;25.16;54.47
46211;BME280;52144;48.040;-1.594;2023-09-19T12:21:27;100901.38;;;25.31;55.45
46211;BME280;52144;48.040;-1.594;2023-09-19T12:24:09;100898.56;;;24.71;56.24
46211;BME280;52144;48.040;-1.594;2023-09-19T12:26:42;100881.47;;;24.60;56.79
46211;BME280;52144;48.040;-1.594;2023-09-19T12:29:13;100885.72;;;25.76;54.81
46211;BME280;52144;48.040;-1.594;2023-09-19T12:31:51;100885.44;;;25.45;54.85
46211;BME280;52144;48.040;-1.594;2023-09-19T12:34:23;100891.66;;;25.29;55.81
46211;BME280;52144;48.040;-1.594;2023-09-19T12:37:07;100896.31;;;24.48;57.20
46211;BME280;52144;48.040;-1.594;2023-09-19T12:39:39;100886.44;;;24.47;56.65
46211;BME280;52144;48.040;-1.594;2023-09-19T12:42:11;100885.50;;;25.00;56.12
46211;BME280;52144;48.040;-1.594;2023-09-19T12:44:42;100895.28;;;25.37;56.16
46211;BME280;52144;48.040;-1.594;2023-09-19T12:47:15;100890.47;;;25.31;56.34
46211;BME280;52144;48.040;-1.594;2023-09-19T12:50:10;100881.00;;;24.47;57.59
46211;BME280;52144;48.040;-1.594;2023-09-19T12:52:42;100894.53;;;25.01;56.98
46211;BME280;52144;48.040;-1.594;2023-09-19T12:55:22;100885.63;;;24.73;57.64
46211;BME280;52144;48.040;-1.594;2023-09-19T12:57:59;100888.09;;;24.58;57.50
46211;BME280;52144;48.040;-1.594;2023-09-19T13:00:33;100877.59;;;24.63;58.16
46211;BME280;52144;48.040;-1.594;2023-09-19T13:03:15;100876.66;;;25.25;56.89
46211;BME280;52144;48.040;-1.594;2023-09-19T13:05:51;100878.97;;;24.67;58.99
46211;BME280;52144;48.040;-1.594;2023-09-19T13:08:23;100882.16;;;24.27;59.49
46211;BME280;52144;48.040;-1.594;2023-09-19T13:11:06;100872.41;;;24.42;59.46
46211;BME280;52144;48.040;-1.594;2023-09-19T13:13:39;100870.19;;;24.55;59.06